Time;durP1;ratioP1;P1;durP2;ratioP2;P2;SDS_P1;SDS_P2;PMS_P1;PMS_P2;Temp;Humidity;BMP_temperature;BMP_pressure;BME280_temperature;BME280_humidity;BME280_pressure;Samples;Min_cycle;Max_cycle;Signal;HPM_P1;HPM_P2
2023/08/02 00:02:16;;;;;;;5.50;3.83;;;;;;;;;;5097327;28;20339;-30
2023/08/02 00:04:42;;;;;;;6.82;4.53;;;;;;;;;;5097614;28;20347;-27
2023/08/02 00:07:08;;;;;;;10.90;4.32;;;;;;;;;;5097233;28;20101;-29
2023/08/02 00:09:34;;;;;;;9.63;4.18;;;;;;;;;;5097444;28;20394;-31
2023/08/02 00:12:00;;;;;;;11.32;4.68;;;;;;;;;;5097336;28;20439;-27
2023/08/02 00:14:27;;;;;;;7.78;3.92;;;;;;;;;;5096276;28;20023;-29
2023/08/02 00:16:53;;;;;;;5.15;3.47;;;;;;;;;;5097054;28;20063;-28
2023/08/02 00:19:19;;;;;;;9.75;4.30;;;;;;;;;;5096887;28;20028;-29
2023/08/02 00:21:45;;;;;;;10.52;4.57;;;;;;;;;;5097222;28;20119;-30
2023/08/02 00:24:11;;;;;;;4.72;3.90;;;;;;;;;;5096904;28;20048;-29
2023/08/02 00:26:37;;;;;;;6.75;3.90;;;;;;;;;;5097378;28;20020;-29
2023/08/02 00:29:04;;;;;;;8.93;4.63;;;;;;;;;;5097111;28;20028;-30
2023/08/02 00:31:30;;;;;;;7.82;3.80;;;;;;;;;;5097023;28;20032;-27
2023/08/02 00:33:56;;;;;;;7.55;4.45;;;;;;;;;;5095670;28;20039;-30
2023/08/02 00:36:22;;;;;;;4.57;3.67;;;;;;;;;;5096652;28;20032;-29
2023/08/02 00:38:48;;;;;;;5.28;3.55;;;;;;;;;;5096793;28;20035;-30
2023/08/02 00:41:14;;;;;;;4.45;3.40;;;;;;;;;;5096849;28;20016;-34
2023/08/02 00:43:45;;;;;;;8.77;4.20;;;;;;;;;;5096487;28;20095;-34
2023/08/02 00:46:11;;;;;;;;;;;;;;;;;;5096846;28;20107;-35
2023/08/02 00:48:37;;;;;;;4.80;3.58;;;;;;;;;;5096725;28;19939;-30
2023/08/02 00:51:04;;;;;;;5.05;3.70;;;;;;;;;;5096412;28;20024;-27
2023/08/02 00:53:30;;;;;;;11.30;4.18;;;;;;;;;;5096326;28;20032;-29
2023/08/02 00:55:57;;;;;;;5.68;3.78;;;;;;;;;;5096302;28;20043;-31
2023/08/02 00:58:23;;;;;;;7.75;4.07;;;;;;;;;;5096185;28;20023;-32
2023/08/02 01:00:50;;;;;;;7.82;4.70;;;;;;;;;;5096213;28;20048;-31
2023/08/02 01:03:16;;;;;;;6.32;3.28;;;;;;;;;;5095909;28;20382;-31
2023/08/02 01:05:48;;;;;;;7.25;4.15;;;;;;;;;;5096113;28;20020;-30
2023/08/02 01:08:17;;;;;;;5.03;3.45;;;;;;;;;;5096376;28;20081;-32
2023/08/02 01:10:49;;;;;;;7.03;3.78;;;;;;;;;;5096062;28;20102;-29
2023/08/02 01:13:17;;;;;;;9.27;3.80;;;;;;;;;;5095896;28;20038;-30
2023/08/02 01:15:44;;;;;;;5.93;3.60;;;;;;;;;;5096000;28;20027;-28
2023/08/02 01:18:10;;;;;;;10.73;4.55;;;;;;;;;;5096323;28;20032;-29
2023/08/02 01:20:36;;;;;;;13.13;3.53;;;;;;;;;;5095852;28;20149;-30
2023/08/02 01:23:02;;;;;;;6.90;4.28;;;;;;;;;;5095977;28;20020;-28
2023/08/02 01:25:30;;;;;;;9.65;4.00;;;;;;;;;;5095488;28;20362;-27
2023/08/02 01:27:58;;;;;;;10.13;3.67;;;;;;;;;;5095642;28;20101;-30
2023/08/02 01:30:26;;;;;;;9.75;4.10;;;;;;;;;;5096174;28;20167;-30
2023/08/02 01:32:53;;;;;;;4.93;3.35;;;;;;;;;;5095511;28;20042;-32
2023/08/02 01:35:20;;;;;;;8.02;3.38;;;;;;;;;;5095838;28;20041;-27
2023/08/02 01:37:47;;;;;;;5.40;4.28;;;;;;;;;;5095436;28;20032;-31
2023/08/02 01:40:13;;;;;;;3.95;3.60;;;;;;;;;;5095719;28;20062;-29
2023/08/02 01:42:40;;;;;;;7.60;4.22;;;;;;;;;;5094390;28;20039;-29
2023/08/02 01:45:06;;;;;;;5.07;3.72;;;;;;;;;;5095367;28;20016;-31
2023/08/02 01:47:32;;;;;;;7.78;3.70;;;;;;;;;;5095316;28;20116;-30
2023/08/02 01:49:58;;;;;;;4.03;3.50;;;;;;;;;;5095560;28;20032;-34
2023/08/02 01:52:24;;;;;;;4.53;3.60;;;;;;;;;;5095183;28;20024;-29
2023/08/02 01:54:50;;;;;;;5.00;3.33;;;;;;;;;;5095462;28;20024;-36
2023/08/02 01:57:16;;;;;;;6.47;3.42;;;;;;;;;;5095454;28;20144;-26
2023/08/02 01:59:43;;;;;;;5.22;4.10;;;;;;;;;;5095075;28;20024;-28
2023/08/02 02:02:09;;;;;;;5.90;3.83;;;;;;;;;;5095021;28;20019;-28
2023/08/02 02:04:35;;;;;;;4.63;3.75;;;;;;;;;;5094921;28;20036;-29
2023/08/02 02:07:01;;;;;;;4.10;3.15;;;;;;;;;;5095051;28;20031;-31
2023/08/02 02:09:27;;;;;;;3.70;3.20;;;;;;;;;;5094991;28;20028;-32
2023/08/02 02:11:53;;;;;;;6.80;4.68;;;;;;;;;;5094902;28;20412;-30
2023/08/02 02:14:19;;;;;;;6.78;3.80;;;;;;;;;;5094905;28;20056;-30
2023/08/02 02:16:45;;;;;;;3.90;3.40;;;;;;;;;;5095192;28;20032;-29
2023/08/02 02:19:11;;;;;;;4.88;3.33;;;;;;;;;;5094808;28;20039;-29
2023/08/02 02:21:38;;;;;;;5.95;3.88;;;;;;;;;;5095089;28;20020;-30
2023/08/02 02:24:05;;;;;;;4.30;3.50;;;;;;;;;;5094740;28;20032;-27
2023/08/02 02:26:31;;;;;;;8.82;3.95;;;;;;;;;;5094742;28;20028;-29
2023/08/02 02:28:57;;;;;;;3.78;3.03;;;;;;;;;;5094866;28;20028;-28
2023/08/02 02:31:23;;;;;;;10.05;4.72;;;;;;;;;;5094765;28;20060;-30
2023/08/02 02:33:49;;;;;;;5.40;3.00;;;;;;;;;;5094934;28;20103;-31
2023/08/02 02:36:15;;;;;;;3.40;3.03;;;;;;;;;;5094663;28;20028;-29
2023/08/02 02:38:41;;;;;;;4.25;3.28;;;;;;;;;;5097723;28;20028;-29
2023/08/02 02:41:07;;;;;;;10.43;3.65;;;;;;;;;;5099168;28;20347;-27
2023/08/02 02:43:33;;;;;;;5.32;3.45;;;;;;;;;;5098821;28;20021;-27
2023/08/02 02:45:59;;;;;;;6.10;3.58;;;;;;;;;;5099064;28;20020;-30
2023/08/02 02:48:25;;;;;;;4.93;3.40;;;;;;;;;;5099047;28;20039;-30
2023/08/02 02:50:51;;;;;;;5.20;2.95;;;;;;;;;;5098735;28;20038;-29
2023/08/02 02:53:20;;;;;;;4.32;3.60;;;;;;;;;;5098580;28;20027;-29
2023/08/02 02:55:46;;;;;;;3.83;3.35;;;;;;;;;;5098691;28;20020;-28
2023/08/02 02:58:13;;;;;;;7.25;3.67;;;;;;;;;;5098507;28;20031;-29
2023/08/02 03:00:39;;;;;;;3.22;2.90;;;;;;;;;;5098539;28;20446;-30
2023/08/02 03:03:05;;;;;;;4.47;3.35;;;;;;;;;;5098237;28;20115;-27
2023/08/02 03:05:31;;;;;;;5.10;3.42;;;;;;;;;;5098464;28;20525;-28
2023/08/02 03:07:57;;;;;;;9.10;4.35;;;;;;;;;;5098383;28;20059;-28
2023/08/02 03:10:23;;;;;;;4.78;3.85;;;;;;;;;;5098623;28;20099;-30
2023/08/02 03:12:49;;;;;;;5.95;3.30;;;;;;;;;;5098232;28;20035;-27
2023/08/02 03:15:15;;;;;;;4.00;3.22;;;;;;;;;;5098530;28;20028;-27
2023/08/02 03:17:41;;;;;;;3.83;3.47;;;;;;;;;;5098109;28;20042;-28
2023/08/02 03:20:07;;;;;;;5.53;3.60;;;;;;;;;;5098135;28;20024;-30
2023/08/02 03:22:34;;;;;;;8.35;3.28;;;;;;;;;;5098316;28;20016;-30
2023/08/02 03:25:00;;;;;;;4.05;3.53;;;;;;;;;;5098044;28;20121;-31
2023/08/02 03:27:26;;;;;;;4.63;3.75;;;;;;;;;;5097880;28;20488;-27
2023/08/02 03:29:52;;;;;;;3.80;3.40;;;;;;;;;;5097972;28;20034;-28
2023/08/02 03:32:18;;;;;;;5.35;3.17;;;;;;;;;;5098407;28;20031;-31
2023/08/02 03:34:45;;;;;;;7.38;3.45;;;;;;;;;;5097276;28;20050;-27
2023/08/02 03:37:11;;;;;;;3.95;3.22;;;;;;;;;;5097765;28;20024;-30
2023/08/02 03:39:37;;;;;;;4.38;3.35;;;;;;;;;;5097936;28;20458;-31
2023/08/02 03:42:03;;;;;;;5.40;3.30;;;;;;;;;;5097659;28;20031;-31
2023/08/02 03:44:29;;;;;;;6.20;3.45;;;;;;;;;;5097942;28;20020;-28
2023/08/02 03:46:55;;;;;;;6.88;3.58;;;;;;;;;;5097858;28;20371;-28
2023/08/02 03:49:22;;;;;;;4.28;2.97;;;;;;;;;;5097489;28;20024;-29
2023/08/02 03:51:49;;;;;;;4.53;3.10;;;;;;;;;;5097389;28;20032;-29
2023/08/02 03:54:15;;;;;;;4.85;3.03;;;;;;;;;;5097775;28;20120;-27
2023/08/02 03:56:41;;;;;;;5.25;3.05;;;;;;;;;;5097750;28;20355;-28
2023/08/02 03:59:07;;;;;;;8.00;3.58;;;;;;;;;;5097273;28;20085;-30
2023/08/02 04:01:33;;;;;;;5.07;3.55;;;;;;;;;;5097602;28;20412;-31
2023/08/02 04:03:59;;;;;;;10.70;4.07;;;;;;;;;;5096991;28;20067;-30
2023/08/02 04:06:25;;;;;;;6.63;3.38;;;;;;;;;;5097462;28;20024;-33
2023/08/02 04:08:51;;;;;;;6.03;3.28;;;;;;;;;;5097109;28;20089;-28
2023/08/02 04:11:17;;;;;;;4.63;3.35;;;;;;;;;;5097033;28;20035;-30
2023/08/02 04:13:44;;;;;;;6.03;3.28;;;;;;;;;;5097257;28;20024;-27
2023/08/02 04:16:10;;;;;;;4.60;3.45;;;;;;;;;;5096985;28;20020;-28
2023/08/02 04:18:36;;;;;;;7.05;3.47;;;;;;;;;;5096706;28;20054;-27
2023/08/02 04:21:02;;;;;;;3.85;2.80;;;;;;;;;;5096835;28;20020;-29
2023/08/02 04:23:28;;;;;;;8.07;4.35;;;;;;;;;;5095798;28;20111;-30
2023/08/02 04:25:54;;;;;;;6.45;3.20;;;;;;;;;;5095777;28;20289;-29
2023/08/02 04:28:20;;;;;;;3.33;3.00;;;;;;;;;;5097050;28;20173;-31
2023/08/02 04:30:53;;;;;;;3.10;2.90;;;;;;;;;;5096677;28;20031;-29
2023/08/02 04:33:19;;;;;;;4.97;3.10;;;;;;;;;;5096523;28;20111;-29
2023/08/02 04:35:45;;;;;;;5.18;3.13;;;;;;;;;;5096538;28;20028;-30
2023/08/02 04:38:11;;;;;;;4.85;3.92;;;;;;;;;;5096831;28;20036;-29
2023/08/02 04:40:40;;;;;;;8.15;3.60;;;;;;;;;;5096485;28;20437;-30
2023/08/02 04:43:06;;;;;;;4.30;3.42;;;;;;;;;;5096300;28;20020;-34
2023/08/02 04:45:33;;;;;;;4.75;3.20;;;;;;;;;;5096320;28;20016;-33
2023/08/02 04:47:59;;;;;;;9.32;3.65;;;;;;;;;;5096626;28;20024;-26
2023/08/02 04:50:25;;;;;;;12.80;4.03;;;;;;;;;;5096558;28;20103;-28
2023/08/02 04:52:51;;;;;;;7.75;3.75;;;;;;;;;;5095325;28;20028;-28
2023/08/02 04:55:17;;;;;;;4.60;3.47;;;;;;;;;;5096157;28;20034;-28
2023/08/02 04:57:43;;;;;;;3.85;3.25;;;;;;;;;;5096051;28;20028;-30
2023/08/02 05:00:09;;;;;;;6.28;3.15;;;;;;;;;;5095499;28;20020;-31
2023/08/02 05:02:36;;;;;;;5.20;3.80;;;;;;;;;;5095835;28;20054;-29
2023/08/02 05:05:05;;;;;;;5.82;3.15;;;;;;;;;;5096285;28;20359;-28
2023/08/02 05:07:35;;;;;;;3.53;3.22;;;;;;;;;;5095780;28;20024;-30
2023/08/02 05:10:04;;;;;;;8.85;4.00;;;;;;;;;;5096044;28;20073;-35
2023/08/02 05:12:38;;;;;;;6.85;3.53;;;;;;;;;;5096340;28;20104;-30
2023/08/02 05:15:04;;;;;;;4.40;3.35;;;;;;;;;;5096222;28;20095;-32
2023/08/02 05:17:30;;;;;;;4.60;2.65;;;;;;;;;;5095738;28;20472;-32
2023/08/02 05:19:57;;;;;;;6.70;3.78;;;;;;;;;;5095694;28;20340;-32
2023/08/02 05:22:23;;;;;;;8.02;3.28;;;;;;;;;;5095808;28;20170;-32
2023/08/02 05:24:52;;;;;;;6.57;3.45;;;;;;;;;;5096142;28;20030;-29
2023/08/02 05:27:19;;;;;;;6.72;3.58;;;;;;;;;;5095917;28;20144;-33
2023/08/02 05:29:45;;;;;;;3.90;3.20;;;;;;;;;;5095532;28;20024;-30
2023/08/02 05:32:11;;;;;;;4.40;3.08;;;;;;;;;;5095416;28;20028;-31
2023/08/02 05:34:37;;;;;;;9.93;4.25;;;;;;;;;;5095947;28;20077;-31
2023/08/02 05:37:03;;;;;;;5.38;4.55;;;;;;;;;;5095887;28;20028;-29
2023/08/02 05:39:30;;;;;;;8.18;4.30;;;;;;;;;;5095602;28;20028;-30
2023/08/02 05:41:56;;;;;;;11.55;4.10;;;;;;;;;;5095243;28;20459;-29
2023/08/02 05:44:22;;;;;;;5.75;3.92;;;;;;;;;;5095604;28;20027;-29
2023/08/02 05:46:48;;;;;;;5.40;3.45;;;;;;;;;;5095491;28;20020;-29
2023/08/02 05:49:14;;;;;;;7.07;3.67;;;;;;;;;;5095866;28;20449;-29
2023/08/02 05:51:41;;;;;;;8.27;4.35;;;;;;;;;;5095206;28;20024;-30
2023/08/02 05:54:07;;;;;;;15.50;4.25;;;;;;;;;;5094955;28;20036;-29
2023/08/02 05:56:33;;;;;;;7.40;3.03;;;;;;;;;;5095274;28;20367;-29
2023/08/02 05:59:00;;;;;;;5.53;3.75;;;;;;;;;;5094920;28;20020;-34
2023/08/02 06:01:26;;;;;;;7.63;3.72;;;;;;;;;;5095008;28;20024;-32
2023/08/02 06:03:52;;;;;;;5.75;3.40;;;;;;;;;;5094649;28;20043;-29
2023/08/02 06:06:18;;;;;;;9.55;4.65;;;;;;;;;;5094915;28;20465;-28
2023/08/02 06:08:45;;;;;;;5.63;3.40;;;;;;;;;;5095204;28;20418;-28
2023/08/02 06:11:12;;;;;;;4.85;3.10;;;;;;;;;;5095138;28;20032;-27
2023/08/02 06:13:38;;;;;;;6.35;2.85;;;;;;;;;;5093869;28;20039;-27
2023/08/02 06:16:05;;;;;;;9.93;4.22;;;;;;;;;;5094736;28;20047;-26
2023/08/02 06:18:31;;;;;;;12.00;3.97;;;;;;;;;;5094711;28;20056;-30
2023/08/02 06:20:57;;;;;;;10.38;3.08;;;;;;;;;;5095004;28;20045;-28
2023/08/02 06:23:23;;;;;;;9.77;3.42;;;;;;;;;;5094624;28;20020;-30
2023/08/02 06:25:49;;;;;;;9.30;4.72;;;;;;;;;;5094872;28;20024;-33
2023/08/02 06:28:15;;;;;;;4.25;3.50;;;;;;;;;;5094901;28;20028;-30
2023/08/02 06:30:41;;;;;;;8.95;3.53;;;;;;;;;;5094653;28;20024;-30
2023/08/02 06:33:07;;;;;;;6.32;3.38;;;;;;;;;;5094534;28;20027;-30
2023/08/02 06:35:34;;;;;;;10.30;4.53;;;;;;;;;;5094524;28;20475;-28
2023/08/02 06:38:00;;;;;;;7.10;3.55;;;;;;;;;;5094987;28;20028;-27
2023/08/02 06:40:26;;;;;;;7.32;3.30;;;;;;;;;;5094749;28;20358;-28
2023/08/02 06:42:52;;;;;;;8.57;3.75;;;;;;;;;;5094473;28;20077;-29
2023/08/02 06:45:18;;;;;;;6.53;3.47;;;;;;;;;;5094566;28;20039;-33
2023/08/02 06:47:44;;;;;;;15.85;3.08;;;;;;;;;;5094361;28;20519;-29
2023/08/02 06:50:10;;;;;;;7.70;4.35;;;;;;;;;;5094380;28;20366;-32
2023/08/02 06:52:36;;;;;;;5.95;3.38;;;;;;;;;;5094478;28;20436;-30
2023/08/02 06:55:03;;;;;;;4.13;3.10;;;;;;;;;;5094512;28;20099;-25
2023/08/02 06:57:31;;;;;;;6.13;3.05;;;;;;;;;;5094615;28;20020;-29
2023/08/02 06:59:57;;;;;;;14.63;3.42;;;;;;;;;;5094538;28;20043;-31
2023/08/02 07:02:23;;;;;;;11.18;3.90;;;;;;;;;;5093304;28;20103;-29
2023/08/02 07:04:49;;;;;;;7.28;4.07;;;;;;;;;;5094173;28;20055;-28
2023/08/02 07:07:16;;;;;;;29.02;4.80;;;;;;;;;;5094260;28;20016;-33
2023/08/02 07:09:42;;;;;;;12.90;3.90;;;;;;;;;;5094545;28;20022;-28
2023/08/02 07:12:08;;;;;;;18.08;4.97;;;;;;;;;;5094438;28;20323;-32
2023/08/02 07:14:34;;;;;;;11.75;3.92;;;;;;;;;;5094625;28;20031;-32
2023/08/02 07:17:00;;;;;;;9.57;3.95;;;;;;;;;;5094316;28;20036;-31
2023/08/02 07:19:26;;;;;;;5.85;3.42;;;;;;;;;;5094259;28;20336;-32
2023/08/02 07:21:52;;;;;;;5.50;3.33;;;;;;;;;;5094223;28;20017;-30
2023/08/02 07:24:18;;;;;;;10.52;3.70;;;;;;;;;;5096606;28;20359;-28
2023/08/02 07:26:46;;;;;;;6.63;3.28;;;;;;;;;;5097298;28;20043;-29
2023/08/02 07:29:12;;;;;;;12.43;3.30;;;;;;;;;;5098027;28;20028;-27
2023/08/02 07:31:38;;;;;;;4.45;3.47;;;;;;;;;;5097811;28;20051;-28
2023/08/02 07:34:04;;;;;;;6.93;3.25;;;;;;;;;;5097678;28;20031;-32
2023/08/02 07:36:30;;;;;;;4.90;3.40;;;;;;;;;;5097737;28;20109;-32
2023/08/02 07:38:56;;;;;;;8.57;3.35;;;;;;;;;;5097667;28;20024;-30
2023/08/02 07:41:22;;;;;;;4.85;3.45;;;;;;;;;;5097891;28;20058;-30
2023/08/02 07:43:48;;;;;;;8.48;3.20;;;;;;;;;;5097505;28;20020;-27
2023/08/02 07:46:19;;;;;;;4.22;3.10;;;;;;;;;;5096359;28;20111;-32
2023/08/02 07:48:45;;;;;;;5.13;3.20;;;;;;;;;;5097736;28;20068;-29
2023/08/02 07:51:11;;;;;;;6.57;3.22;;;;;;;;;;5097475;28;20024;-33
2023/08/02 07:53:37;;;;;;;9.60;3.42;;;;;;;;;;5097270;28;20028;-31
2023/08/02 07:56:03;;;;;;;5.50;2.78;;;;;;;;;;5097366;28;20402;-31
2023/08/02 07:58:30;;;;;;;6.75;2.97;;;;;;;;;;5096378;28;20020;-32
2023/08/02 08:00:56;;;;;;;6.68;3.25;;;;;;;;;;5097709;28;20096;-29
2023/08/02 08:03:22;;;;;;;3.80;3.05;;;;;;;;;;5096899;28;20040;-30
2023/08/02 08:05:48;;;;;;;12.63;4.18;;;;;;;;;;5097212;28;20024;-27
2023/08/02 08:08:15;;;;;;;6.70;3.65;;;;;;;;;;5097263;28;20020;-30
2023/08/02 08:10:41;;;;;;;10.10;3.28;;;;;;;;;;5097327;28;20038;-30
2023/08/02 08:13:07;;;;;;;4.57;2.80;;;;;;;;;;5097327;28;20347;-31
2023/08/02 08:15:33;;;;;;;4.07;2.85;;;;;;;;;;5097300;28;20028;-32
2023/08/02 08:17:59;;;;;;;6.72;3.22;;;;;;;;;;5096960;28;20032;-30
2023/08/02 08:20:25;;;;;;;7.25;3.60;;;;;;;;;;5097450;28;20451;-30
2023/08/02 08:22:51;;;;;;;5.45;3.05;;;;;;;;;;5097139;28;20057;-28
2023/08/02 08:25:17;;;;;;;5.55;2.67;;;;;;;;;;5096918;28;20030;-29
2023/08/02 08:27:43;;;;;;;6.55;3.08;;;;;;;;;;5096813;28;20103;-28
2023/08/02 08:30:10;;;;;;;4.97;3.05;;;;;;;;;;5096831;28;20115;-28
2023/08/02 08:32:36;;;;;;;7.05;3.45;;;;;;;;;;5096613;28;20028;-30
2023/08/02 08:35:03;;;;;;;6.18;2.97;;;;;;;;;;5096033;28;20470;-31
2023/08/02 08:37:29;;;;;;;6.15;2.78;;;;;;;;;;5097690;28;20445;-28
2023/08/02 08:39:55;;;;;;;7.70;3.40;;;;;;;;;;5096522;28;20060;-31
2023/08/02 08:42:21;;;;;;;7.07;3.97;;;;;;;;;;5096472;28;20035;-31
2023/08/02 08:44:48;;;;;;;7.70;3.28;;;;;;;;;;5096767;28;20103;-29
2023/08/02 08:47:15;;;;;;;5.05;3.03;;;;;;;;;;5096465;28;20378;-31
2023/08/02 08:49:41;;;;;;;9.88;3.40;;;;;;;;;;5096668;28;20284;-32
2023/08/02 08:52:12;;;;;;;5.10;3.17;;;;;;;;;;5096299;28;20059;-31
2023/08/02 08:54:38;;;;;;;;;;;;;;;;;;5097082;28;20020;-32
2023/08/02 08:57:05;;;;;;;4.38;2.97;;;;;;;;;;5096193;28;19939;-28
2023/08/02 08:59:31;;;;;;;4.32;3.22;;;;;;;;;;5096365;28;20442;-30
2023/08/02 09:01:58;;;;;;;8.30;3.40;;;;;;;;;;5095999;28;20462;-28
2023/08/02 09:04:24;;;;;;;5.43;3.45;;;;;;;;;;5094905;28;20082;-32
2023/08/02 09:06:50;;;;;;;3.95;3.15;;;;;;;;;;5096057;28;20351;-28
2023/08/02 09:09:16;;;;;;;4.70;2.88;;;;;;;;;;5095986;28;20118;-30
2023/08/02 09:11:43;;;;;;;4.40;2.65;;;;;;;;;;5096203;28;20024;-30
2023/08/02 09:14:11;;;;;;;8.70;3.83;;;;;;;;;;5094831;28;20024;-33
2023/08/02 09:16:39;;;;;;;4.28;2.90;;;;;;;;;;5096135;28;20099;-28
2023/08/02 09:19:21;;;;;;;7.18;3.75;;;;;;;;;;5095777;28;20421;-30
2023/08/02 09:21:47;;;;;;;8.32;3.10;;;;;;;;;;5095675;28;20028;-29
2023/08/02 09:24:13;;;;;;;7.10;3.10;;;;;;;;;;5095689;28;20454;-33
2023/08/02 09:26:39;;;;;;;12.48;3.08;;;;;;;;;;5095915;28;20039;-28
2023/08/02 09:29:06;;;;;;;5.63;3.50;;;;;;;;;;5095596;28;20032;-29
2023/08/02 09:31:33;;;;;;;9.75;3.25;;;;;;;;;;5094549;28;20426;-28
2023/08/02 09:34:00;;;;;;;12.10;4.47;;;;;;;;;;5095494;28;20023;-27
2023/08/02 09:36:27;;;;;;;4.70;3.45;;;;;;;;;;5095748;28;20417;-28
2023/08/02 09:38:57;;;;;;;4.63;3.13;;;;;;;;;;5095263;28;20451;-28
2023/08/02 09:41:24;;;;;;;4.05;2.47;;;;;;;;;;5095640;28;20023;-31
2023/08/02 09:43:51;;;;;;;6.25;4.15;;;;;;;;;;5095217;28;20020;-28
2023/08/02 09:46:30;;;;;;;6.53;2.97;;;;;;;;;;5095195;28;20024;-33
2023/08/02 09:49:00;;;;;;;10.27;3.13;;;;;;;;;;5095212;28;20024;-31
2023/08/02 09:51:55;;;;;;;8.18;4.30;;;;;;;;;;5095185;28;20107;-32
2023/08/02 09:54:21;;;;;;;4.85;2.60;;;;;;;;;;5081883;28;20378;-30
2023/08/02 09:56:48;;;;;;;5.88;2.67;;;;;;;;;;5095126;28;20024;-33
2023/08/02 09:59:14;;;;;;;8.35;3.03;;;;;;;;;;5095213;28;20032;-31
2023/08/02 10:01:40;;;;;;;5.20;3.75;;;;;;;;;;5095029;28;20028;-35
2023/08/02 10:04:07;;;;;;;4.50;2.78;;;;;;;;;;5094657;28;20115;-32
2023/08/02 10:06:36;;;;;;;6.72;3.03;;;;;;;;;;5094897;28;20020;-31
2023/08/02 10:09:05;;;;;;;6.75;2.67;;;;;;;;;;5094843;28;20035;-32
2023/08/02 10:11:38;;;;;;;8.80;3.35;;;;;;;;;;5095328;28;20024;-31
2023/08/02 10:14:04;;;;;;;8.45;4.15;;;;;;;;;;5094735;28;20024;-33
2023/08/02 10:16:31;;;;;;;4.40;3.08;;;;;;;;;;5094843;28;20036;-30
2023/08/02 10:19:01;;;;;;;4.88;2.75;;;;;;;;;;5094760;28;20032;-32
2023/08/02 10:21:27;;;;;;;4.40;2.33;;;;;;;;;;5095017;28;20371;-31
2023/08/02 10:23:54;;;;;;;8.35;3.63;;;;;;;;;;5094964;28;20072;-29
2023/08/02 10:26:20;;;;;;;6.45;2.75;;;;;;;;;;5094841;28;20031;-26
2023/08/02 10:28:47;;;;;;;6.18;3.17;;;;;;;;;;5094937;28;20028;-28
2023/08/02 10:31:13;;;;;;;8.23;2.90;;;;;;;;;;5093770;28;20088;-31
2023/08/02 10:33:39;;;;;;;3.72;2.63;;;;;;;;;;5094595;28;20024;-29
2023/08/02 10:36:06;;;;;;;5.45;2.70;;;;;;;;;;5094962;28;20020;-29
2023/08/02 10:38:41;;;;;;;3.88;2.90;;;;;;;;;;5094551;28;20166;-31
2023/08/02 10:41:09;;;;;;;6.50;3.20;;;;;;;;;;5094583;28;20031;-29
2023/08/02 10:44:00;;;;;;;8.43;3.05;;;;;;;;;;5094736;28;20024;-30
2023/08/02 10:46:26;;;;;;;15.00;6.00;;;;;;;;;;5094447;28;20032;-31
2023/08/02 10:49:15;;;;;;;6.97;2.38;;;;;;;;;;5094926;28;20028;-32
2023/08/02 10:51:43;;;;;;;6.88;3.53;;;;;;;;;;5086607;28;20043;-30
2023/08/02 10:54:19;;;;;;;8.00;4.05;;;;;;;;;;5094450;28;20362;-31
2023/08/02 10:56:51;;;;;;;3.88;2.60;;;;;;;;;;5094542;28;20035;-32
2023/08/02 10:59:18;;;;;;;8.43;2.60;;;;;;;;;;5096467;28;20478;-27
2023/08/02 11:02:01;;;;;;;7.38;2.70;;;;;;;;;;5098510;28;20024;-28
2023/08/02 11:04:27;;;;;;;5.93;2.85;;;;;;;;;;5098375;28;20046;-30
2023/08/02 11:06:54;;;;;;;9.05;3.08;;;;;;;;;;5098710;28;20513;-27
2023/08/02 11:09:35;;;;;;;11.85;4.70;;;;;;;;;;5098300;28;20036;-31
2023/08/02 11:12:17;;;;;;;8.45;3.00;;;;;;;;;;5098146;28;20028;-28
2023/08/02 11:14:45;;;;;;;9.05;2.78;;;;;;;;;;5098182;28;20024;-30
2023/08/02 11:17:11;;;;;;;9.82;3.42;;;;;;;;;;5098498;28;20481;-31
2023/08/02 11:19:38;;;;;;;8.77;3.05;;;;;;;;;;5098018;28;20042;-30
2023/08/02 11:22:04;;;;;;;3.25;2.67;;;;;;;;;;5097985;28;20030;-28
2023/08/02 11:24:43;;;;;;;5.22;3.42;;;;;;;;;;5097967;28;20066;-30
2023/08/02 11:27:09;;;;;;;9.35;3.08;;;;;;;;;;5098194;28;20024;-30
2023/08/02 11:29:35;;;;;;;6.13;2.85;;;;;;;;;;5098443;28;20054;-30
2023/08/02 11:32:02;;;;;;;9.15;4.25;;;;;;;;;;5097825;28;20059;-29
2023/08/02 11:34:29;;;;;;;10.25;3.28;;;;;;;;;;5098261;28;20027;-31
2023/08/02 11:36:55;;;;;;;7.68;3.65;;;;;;;;;;5098285;28;20095;-27
2023/08/02 11:39:21;;;;;;;10.60;3.08;;;;;;;;;;5097908;28;20351;-30
2023/08/02 11:42:02;;;;;;;8.95;2.78;;;;;;;;;;5097891;28;20049;-28
2023/08/02 11:44:28;;;;;;;16.98;3.55;;;;;;;;;;5097964;28;20400;-31
2023/08/02 11:46:55;;;;;;;11.13;3.20;;;;;;;;;;5097576;28;20077;-32
2023/08/02 11:49:21;;;;;;;7.07;3.33;;;;;;;;;;5097595;28;20459;-31
2023/08/02 11:51:47;;;;;;;8.73;3.28;;;;;;;;;;5097409;28;20473;-32
2023/08/02 11:54:14;;;;;;;3.83;2.85;;;;;;;;;;5097456;28;20035;-31
2023/08/02 11:56:40;;;;;;;10.35;3.40;;;;;;;;;;5097636;28;20036;-32
2023/08/02 11:59:10;;;;;;;5.00;3.25;;;;;;;;;;5097736;28;20024;-29
2023/08/02 12:01:38;;;;;;;8.52;2.75;;;;;;;;;;5097835;28;20028;-29
2023/08/02 12:04:07;;;;;;;7.95;2.95;;;;;;;;;;5097006;28;20036;-28
2023/08/02 12:06:49;;;;;;;5.00;2.72;;;;;;;;;;5097608;28;20374;-30
2023/08/02 12:09:15;;;;;;;5.72;2.70;;;;;;;;;;5097091;28;20095;-35
2023/08/02 12:11:42;;;;;;;5.70;2.65;;;;;;;;;;5096315;28;20032;-31
2023/08/02 12:14:08;;;;;;;5.57;2.70;;;;;;;;;;5097042;28;20109;-39
2023/08/02 12:16:41;;;;;;;7.32;2.92;;;;;;;;;;5097531;28;20358;-31
2023/08/02 12:19:07;;;;;;;4.65;2.53;;;;;;;;;;5097393;28;20103;-32
2023/08/02 12:21:33;;;;;;;2.67;2.42;;;;;;;;;;5097472;28;20020;-30
2023/08/02 12:23:59;;;;;;;8.93;2.95;;;;;;;;;;5096873;28;20016;-29
2023/08/02 12:26:31;;;;;;;4.97;2.45;;;;;;;;;;5096920;28;20103;-28
2023/08/02 12:28:58;;;;;;;4.43;2.55;;;;;;;;;;5096854;28;20024;-29
2023/08/02 12:31:24;;;;;;;5.55;2.50;;;;;;;;;;5097071;28;20039;-28
2023/08/02 12:33:50;;;;;;;6.65;3.67;;;;;;;;;;5096684;28;20028;-28
2023/08/02 12:36:29;;;;;;;8.27;3.28;;;;;;;;;;5096685;28;20031;-28
2023/08/02 12:38:56;;;;;;;4.28;2.30;;;;;;;;;;5096839;28;20155;-30
2023/08/02 12:41:22;;;;;;;6.18;2.42;;;;;;;;;;5096894;28;20091;-29
2023/08/02 12:43:49;;;;;;;3.88;2.30;;;;;;;;;;5096604;28;20035;-28
2023/08/02 12:46:18;;;;;;;6.00;2.50;;;;;;;;;;5096767;28;20024;-29
2023/08/02 12:48:44;;;;;;;5.65;2.55;;;;;;;;;;5096403;28;20024;-31
2023/08/02 12:51:11;;;;;;;7.20;3.05;;;;;;;;;;5096336;28;20153;-29
2023/08/02 12:53:37;;;;;;;3.25;2.22;;;;;;;;;;5096394;28;20435;-34
2023/08/02 12:56:03;;;;;;;4.03;2.28;;;;;;;;;;5096314;28;20032;-31
2023/08/02 12:58:29;;;;;;;7.85;2.80;;;;;;;;;;5096404;28;20020;-33
2023/08/02 13:00:56;;;;;;;4.13;3.13;;;;;;;;;;5096221;28;20366;-29
2023/08/02 13:03:22;;;;;;;3.78;1.88;;;;;;;;;;5095836;28;20036;-28
2023/08/02 13:05:49;;;;;;;5.25;2.22;;;;;;;;;;5096317;28;20332;-27
2023/08/02 13:08:15;;;;;;;6.38;1.98;;;;;;;;;;5096356;28;20035;-26
2023/08/02 13:10:41;;;;;;;5.53;2.97;;;;;;;;;;5096117;28;20035;-32
2023/08/02 13:13:07;;;;;;;9.60;2.55;;;;;;;;;;5095851;28;20049;-29
2023/08/02 13:15:34;;;;;;;4.38;2.67;;;;;;;;;;5096185;28;20480;-32
2023/08/02 13:18:00;;;;;;;5.05;2.45;;;;;;;;;;5095765;28;20451;-29
2023/08/02 13:20:27;;;;;;;5.05;3.03;;;;;;;;;;5095843;28;20111;-31
2023/08/02 13:22:53;;;;;;;4.28;2.35;;;;;;;;;;5095366;28;20095;-28
2023/08/02 13:25:20;;;;;;;5.43;2.70;;;;;;;;;;5095771;28;20031;-31
2023/08/02 13:27:46;;;;;;;7.03;2.65;;;;;;;;;;5095969;28;20024;-29
2023/08/02 13:30:12;;;;;;;4.05;2.70;;;;;;;;;;5095612;28;20498;-31
2023/08/02 13:32:39;;;;;;;9.20;2.95;;;;;;;;;;5094550;28;20070;-31
2023/08/02 13:35:06;;;;;;;3.70;2.58;;;;;;;;;;5096096;28;20036;-30
2023/08/02 13:37:32;;;;;;;6.38;2.83;;;;;;;;;;5096122;28;20020;-29
2023/08/02 13:39:58;;;;;;;5.68;2.60;;;;;;;;;;5095376;28;20462;-31
2023/08/02 13:42:25;;;;;;;6.05;2.70;;;;;;;;;;5095702;28;20363;-30
2023/08/02 13:44:51;;;;;;;7.18;3.35;;;;;;;;;;5095610;28;20032;-31
2023/08/02 13:47:18;;;;;;;3.45;2.00;;;;;;;;;;5095626;28;20028;-32
2023/08/02 13:49:45;;;;;;;6.32;2.65;;;;;;;;;;5095819;28;20099;-31
2023/08/02 13:52:11;;;;;;;7.07;2.63;;;;;;;;;;5095534;28;20032;-33
2023/08/02 13:54:37;;;;;;;3.17;2.25;;;;;;;;;;5095265;28;20102;-29
2023/08/02 13:57:03;;;;;;;2.35;1.95;;;;;;;;;;5095453;28;20020;-27
2023/08/02 13:59:31;;;;;;;3.35;2.20;;;;;;;;;;5095291;28;20044;-29
2023/08/02 14:01:57;;;;;;;5.32;3.03;;;;;;;;;;5095063;28;20025;-27
2023/08/02 14:04:23;;;;;;;6.25;2.28;;;;;;;;;;5095205;28;20062;-30
2023/08/02 14:06:49;;;;;;;6.88;4.28;;;;;;;;;;5095290;28;20016;-27
2023/08/02 14:09:15;;;;;;;6.38;3.10;;;;;;;;;;5095106;28;20045;-28
2023/08/02 14:11:42;;;;;;;4.75;2.80;;;;;;;;;;5095026;28;20028;-29
2023/08/02 14:14:08;;;;;;;13.48;3.22;;;;;;;;;;5094863;28;20076;-32
2023/08/02 14:16:37;;;;;;;8.13;3.05;;;;;;;;;;5095264;28;20023;-33
2023/08/02 14:19:03;;;;;;;19.27;3.53;;;;;;;;;;5095351;28;20032;-28
2023/08/02 14:21:30;;;;;;;7.30;3.10;;;;;;;;;;5094875;28;20027;-28
2023/08/02 14:23:56;;;;;;;7.68;2.75;;;;;;;;;;5093764;28;20032;-31
2023/08/02 14:26:24;;;;;;;11.57;3.78;;;;;;;;;;5094678;28;20031;-28
2023/08/02 14:28:50;;;;;;;6.68;3.22;;;;;;;;;;5094816;28;20016;-29
2023/08/02 14:31:16;;;;;;;6.88;3.05;;;;;;;;;;5095046;28;20407;-28
2023/08/02 14:33:42;;;;;;;5.78;2.75;;;;;;;;;;5093836;28;20020;-30
2023/08/02 14:36:09;;;;;;;6.53;3.00;;;;;;;;;;5094930;28;20031;-30
2023/08/02 14:38:35;;;;;;;6.30;2.85;;;;;;;;;;5094648;28;20099;-34
2023/08/02 14:41:01;;;;;;;4.03;2.55;;;;;;;;;;5094922;28;20020;-29
2023/08/02 14:43:27;;;;;;;4.00;3.08;;;;;;;;;;5093841;28;20472;-30